createdAt,value
2022-12-22T00:02:45.476Z,7.10
2022-12-22T00:05:35.546Z,9.90
2022-12-22T00:08:22.215Z,10.20
2022-12-22T00:11:10.249Z,9.00
2022-12-22T00:13:58.585Z,7.00
2022-12-22T00:16:50.864Z,8.00
2022-12-22T00:19:37.802Z,11.30
2022-12-22T00:22:31.850Z,10.10
2022-12-22T00:25:18.491Z,11.60
2022-12-22T00:28:04.668Z,9.50
2022-12-22T00:30:51.162Z,9.50
2022-12-22T00:33:39.132Z,12.20
2022-12-22T00:36:30.836Z,17.20
2022-12-22T00:39:17.080Z,16.20
2022-12-22T00:42:03.489Z,16.90
2022-12-22T00:44:49.945Z,10.10
2022-12-22T00:47:49.274Z,8.40
2022-12-22T00:50:36.348Z,6.70
2022-12-22T00:53:23.874Z,5.70
2022-12-22T00:56:10.095Z,10.70
2022-12-22T00:58:57.160Z,8.50
2022-12-22T01:01:43.725Z,9.00
2022-12-22T01:04:30.244Z,9.00
2022-12-22T01:07:16.995Z,9.50
2022-12-22T01:10:09.890Z,7.00
2022-12-22T01:12:59.141Z,6.70
2022-12-22T01:15:47.465Z,7.50
2022-12-22T01:18:34.731Z,5.20
2022-12-22T01:21:22.204Z,5.90
2022-12-22T01:26:55.067Z,6.20
2022-12-22T01:29:41.329Z,5.10
2022-12-22T01:32:33.743Z,6.10
2022-12-22T01:35:19.870Z,5.60
2022-12-22T01:38:06.246Z,6.20
2022-12-22T01:40:52.624Z,7.00
2022-12-22T01:43:45.881Z,9.00
2022-12-22T01:46:44.348Z,7.20
2022-12-22T01:49:35.648Z,5.40
2022-12-22T01:52:23.080Z,4.70
2022-12-22T01:55:10.367Z,4.30
2022-12-22T01:57:56.887Z,3.70
2022-12-22T02:00:44.406Z,4.30
2022-12-22T02:03:39.249Z,4.50
2022-12-22T02:07:04.263Z,5.50
2022-12-22T02:10:09.296Z,4.30
2022-12-22T02:13:06.970Z,5.00
2022-12-22T02:16:12.458Z,4.30
2022-12-22T02:19:20.333Z,5.50
2022-12-22T02:22:21.501Z,5.00
2022-12-22T02:25:21.687Z,5.90
2022-12-22T02:28:12.335Z,7.40
2022-12-22T02:30:59.727Z,4.80
2022-12-22T02:33:46.182Z,5.40
2022-12-22T02:36:35.812Z,5.00
2022-12-22T02:39:28.395Z,7.80
2022-12-22T02:42:45.971Z,6.30
2022-12-22T02:46:17.489Z,5.60
2022-12-22T02:49:18.924Z,5.10
2022-12-22T02:52:13.122Z,4.60
2022-12-22T02:54:59.911Z,4.70
2022-12-22T02:57:47.575Z,5.60
2022-12-22T03:00:34.299Z,5.90
2022-12-22T03:03:20.886Z,5.50
2022-12-22T03:06:07.194Z,5.10
2022-12-22T03:08:53.668Z,7.40
2022-12-22T03:11:39.871Z,8.20
2022-12-22T03:14:26.234Z,11.70
2022-12-22T03:17:12.481Z,11.00
2022-12-22T03:19:58.937Z,8.40
2022-12-22T03:22:45.355Z,7.60
2022-12-22T03:25:32.230Z,6.00
2022-12-22T03:28:05.344Z,5.70
2022-12-22T03:30:33.822Z,13.20
2022-12-22T03:33:01.660Z,7.50
2022-12-22T03:35:29.496Z,5.00
2022-12-22T03:37:57.363Z,5.90
2022-12-22T03:40:25.181Z,6.40
2022-12-22T03:43:11.478Z,4.70
2022-12-22T03:45:57.806Z,4.50
2022-12-22T03:48:25.718Z,4.80
2022-12-22T03:50:53.525Z,4.10
2022-12-22T03:53:21.377Z,4.60
2022-12-22T03:55:49.282Z,4.80
2022-12-22T03:58:17.126Z,4.70
2022-12-22T04:00:45.142Z,4.80
2022-12-22T04:03:14.310Z,4.70
2022-12-22T04:05:42.233Z,4.70
2022-12-22T04:08:10.039Z,5.30
2022-12-22T04:10:56.015Z,5.60
2022-12-22T04:13:23.812Z,8.20
2022-12-22T04:15:51.843Z,7.20
2022-12-22T04:18:19.722Z,6.90
2022-12-22T04:20:48.867Z,7.30
2022-12-22T04:23:16.707Z,6.60
2022-12-22T04:25:44.573Z,6.70
2022-12-22T04:28:12.453Z,8.20
2022-12-22T04:30:40.257Z,7.80
2022-12-22T04:33:08.126Z,7.80
2022-12-22T04:35:35.953Z,7.60
2022-12-22T04:38:03.781Z,5.50
2022-12-22T04:40:31.733Z,6.10
2022-12-22T04:42:59.590Z,6.40
2022-12-22T04:45:27.593Z,6.20
2022-12-22T04:47:55.456Z,10.10
2022-12-22T04:50:23.290Z,7.40
2022-12-22T04:55:19.013Z,8.10
2022-12-22T04:57:46.884Z,7.10
2022-12-22T05:00:15.480Z,10.00
2022-12-22T05:02:43.426Z,10.10
2022-12-22T05:05:11.478Z,9.30
2022-12-22T05:07:39.288Z,12.00
2022-12-22T05:10:07.788Z,10.40
2022-12-22T05:12:54.175Z,12.00
2022-12-22T05:15:30.524Z,11.00
2022-12-22T05:17:59.687Z,10.70
2022-12-22T05:20:27.939Z,12.00
2022-12-22T05:22:56.035Z,12.30
2022-12-22T05:25:24.110Z,10.50
2022-12-22T05:27:52.020Z,10.00
2022-12-22T05:30:20.467Z,9.00
2022-12-22T05:32:48.335Z,11.00
2022-12-22T05:35:16.473Z,10.60
2022-12-22T05:37:44.361Z,13.60
2022-12-22T05:40:12.825Z,11.30
2022-12-22T05:42:40.700Z,11.70
2022-12-22T05:45:15.584Z,11.00
2022-12-22T05:47:45.129Z,12.20
2022-12-22T05:50:15.134Z,13.30
2022-12-22T05:52:44.700Z,13.50
2022-12-22T05:55:14.094Z,13.30
2022-12-22T05:57:42.181Z,15.70
2022-12-22T06:00:14.199Z,17.70
2022-12-22T06:02:43.599Z,16.10
2022-12-22T06:05:13.274Z,14.40
2022-12-22T06:07:41.746Z,14.20
2022-12-22T06:10:12.699Z,14.00
2022-12-22T06:12:42.226Z,10.60
2022-12-22T06:15:13.171Z,11.20
2022-12-22T06:17:44.902Z,10.50
2022-12-22T06:22:41.980Z,12.50
2022-12-22T06:25:17.234Z,12.40
2022-12-22T06:27:47.229Z,11.90
2022-12-22T06:30:16.357Z,13.50
2022-12-22T06:32:44.346Z,10.90
2022-12-22T06:35:12.245Z,11.30
2022-12-22T06:37:40.602Z,11.10
2022-12-22T06:40:09.820Z,10.50
2022-12-22T06:42:58.566Z,9.40
2022-12-22T06:45:30.126Z,8.80
2022-12-22T06:47:58.059Z,11.90
2022-12-22T06:50:25.944Z,11.10
2022-12-22T06:52:53.840Z,14.30
2022-12-22T06:55:22.186Z,16.60
2022-12-22T06:57:50.040Z,13.00
2022-12-22T07:00:18.246Z,12.90
2022-12-22T07:02:46.326Z,10.80
2022-12-22T07:05:15.672Z,11.00
2022-12-22T07:07:43.667Z,8.20
2022-12-22T07:10:12.530Z,9.20
2022-12-22T07:12:40.535Z,9.20
2022-12-22T07:15:09.531Z,10.10
2022-12-22T07:17:37.525Z,9.40
2022-12-22T07:20:05.739Z,10.20
2022-12-22T07:22:33.601Z,5.30
2022-12-22T07:25:01.439Z,10.10
2022-12-22T07:27:29.349Z,10.60
2022-12-22T07:29:57.212Z,10.80
2022-12-22T07:32:25.000Z,18.20
2022-12-22T07:34:52.889Z,14.50
2022-12-22T07:37:20.719Z,12.50
2022-12-22T07:39:48.573Z,11.80
2022-12-22T07:42:35.160Z,14.30
2022-12-22T07:45:03.043Z,12.70
2022-12-22T07:47:35.194Z,12.60
2022-12-22T07:50:23.253Z,16.00
2022-12-22T07:52:52.893Z,12.20
2022-12-22T07:55:21.122Z,12.50
2022-12-22T07:57:49.231Z,16.20
2022-12-22T08:00:18.033Z,18.60
2022-12-22T08:02:51.048Z,16.90
2022-12-22T08:05:19.805Z,15.10
2022-12-22T08:07:52.366Z,13.10
2022-12-22T08:10:20.819Z,17.70
2022-12-22T08:12:48.689Z,17.90
2022-12-22T08:15:16.757Z,18.10
2022-12-22T08:17:44.602Z,18.20
2022-12-22T08:20:12.507Z,18.30
2022-12-22T08:22:40.403Z,14.70
2022-12-22T08:25:08.703Z,13.60
2022-12-22T08:27:42.571Z,12.50
2022-12-22T08:30:11.253Z,9.80
2022-12-22T08:32:40.605Z,10.20
2022-12-22T08:35:09.711Z,10.00
2022-12-22T08:37:42.974Z,11.00
2022-12-22T08:40:15.158Z,8.40
2022-12-22T08:42:43.199Z,10.30
2022-12-22T08:45:11.460Z,8.40
2022-12-22T08:47:39.293Z,9.20
2022-12-22T08:50:07.777Z,12.80
2022-12-22T08:52:35.647Z,11.40
2022-12-22T08:55:03.709Z,13.90
2022-12-22T08:57:31.581Z,18.40
2022-12-22T08:59:59.804Z,15.40
2022-12-22T09:02:27.739Z,11.70
2022-12-22T09:04:55.637Z,7.30
2022-12-22T09:07:23.466Z,9.70
2022-12-22T09:09:51.424Z,9.30
2022-12-22T09:12:19.223Z,9.90
2022-12-22T09:14:47.059Z,8.20
2022-12-22T09:17:15.232Z,9.70
2022-12-22T09:19:43.149Z,11.90
2022-12-22T09:22:11.501Z,11.10
2022-12-22T09:24:39.344Z,7.30
2022-12-22T09:27:09.145Z,9.30
2022-12-22T09:29:39.765Z,12.60
2022-12-22T09:32:07.632Z,9.20
2022-12-22T09:34:35.527Z,9.40
2022-12-22T09:37:03.471Z,9.50
2022-12-22T09:39:31.345Z,7.80
2022-12-22T09:41:59.436Z,6.60
2022-12-22T09:44:34.613Z,8.60
2022-12-22T09:47:10.328Z,7.20
2022-12-22T09:49:38.306Z,7.60
2022-12-22T09:52:18.737Z,15.60
2022-12-22T09:54:46.601Z,11.70
2022-12-22T09:57:14.469Z,11.30
2022-12-22T09:59:42.293Z,9.90
2022-12-22T10:02:24.612Z,8.80
2022-12-22T10:05:17.919Z,10.60
2022-12-22T10:07:45.914Z,10.80
2022-12-22T10:10:27.429Z,9.70
2022-12-22T10:12:57.481Z,11.80
2022-12-22T10:15:26.147Z,18.00
2022-12-22T10:18:10.318Z,6.20
2022-12-22T10:20:39.897Z,3.60
2022-12-22T10:23:18.631Z,4.90
2022-12-22T10:28:59.388Z,7.70
2022-12-22T10:31:35.041Z,6.60
2022-12-22T10:34:17.145Z,7.30
2022-12-22T10:36:50.259Z,10.20
2022-12-22T10:39:36.309Z,6.90
2022-12-22T10:42:13.394Z,5.40
2022-12-22T10:44:47.804Z,4.00
2022-12-22T10:47:24.149Z,3.80
2022-12-22T10:52:30.626Z,3.20
2022-12-22T10:55:21.814Z,3.90
2022-12-22T10:57:50.308Z,5.00
2022-12-22T11:00:28.799Z,3.70
2022-12-22T11:02:59.404Z,4.50
2022-12-22T11:05:28.121Z,3.90
2022-12-22T11:07:57.551Z,3.50
2022-12-22T11:10:47.796Z,4.40
2022-12-22T11:13:15.577Z,6.00
2022-12-22T11:16:04.203Z,9.80
2022-12-22T11:19:29.475Z,10.20
2022-12-22T11:22:00.923Z,13.80
2022-12-22T11:24:59.892Z,7.90
2022-12-22T11:28:01.949Z,9.00
2022-12-22T11:30:43.822Z,17.40
2022-12-22T11:33:21.157Z,12.70
2022-12-22T11:35:57.571Z,6.60
2022-12-22T11:38:33.010Z,7.90
2022-12-22T11:41:14.350Z,6.20
2022-12-22T11:44:28.057Z,6.30
2022-12-22T11:47:07.187Z,5.60
2022-12-22T11:50:59.572Z,7.60
2022-12-22T11:53:12.352Z,30.80
2022-12-22T11:56:15.474Z,36.30
2022-12-22T11:59:12.499Z,11.70
2022-12-22T12:01:59.157Z,13.20
2022-12-22T12:04:50.286Z,9.40
2022-12-22T12:07:28.004Z,10.60
2022-12-22T12:10:22.385Z,9.20
2022-12-22T12:13:08.608Z,7.30
2022-12-22T12:15:44.411Z,6.70
2022-12-22T12:18:27.333Z,9.20
2022-12-22T12:21:04.527Z,9.80
2022-12-22T12:23:54.772Z,8.70
2022-12-22T12:26:51.527Z,4.80
2022-12-22T12:29:37.371Z,9.00
2022-12-22T12:32:17.036Z,5.10
2022-12-22T12:34:54.209Z,6.10
2022-12-22T12:37:29.641Z,5.10
2022-12-22T12:40:08.058Z,5.30
2022-12-22T12:42:45.416Z,4.20
2022-12-22T12:45:31.853Z,5.80
2022-12-22T12:48:22.194Z,5.20
2022-12-22T12:50:57.871Z,4.40
2022-12-22T12:53:27.870Z,5.20
2022-12-22T12:56:06.158Z,5.40
2022-12-22T12:58:40.055Z,5.80
2022-12-22T13:01:32.992Z,5.80
2022-12-22T13:04:04.243Z,7.40
2022-12-22T13:06:53.553Z,6.70
2022-12-22T13:09:50.036Z,6.30
2022-12-22T13:12:48.380Z,4.30
2022-12-22T13:15:31.489Z,4.50
2022-12-22T13:18:00.891Z,6.10
2022-12-22T13:20:34.814Z,7.00
2022-12-22T13:23:10.241Z,7.30
2022-12-22T13:25:48.603Z,6.10
2022-12-22T13:28:19.146Z,4.80
2022-12-22T13:31:28.674Z,5.80
2022-12-22T13:34:24.936Z,5.50
2022-12-22T13:36:54.557Z,13.20
2022-12-22T13:39:22.334Z,11.40
2022-12-22T13:41:51.494Z,12.40
2022-12-22T13:44:32.847Z,7.50
2022-12-22T13:47:07.479Z,8.30
2022-12-22T13:50:07.293Z,8.50
2022-12-22T13:52:23.933Z,7.00
2022-12-22T13:54:51.852Z,6.40
2022-12-22T13:57:22.239Z,5.00
2022-12-22T13:59:51.596Z,6.30
2022-12-22T14:02:21.368Z,8.70
2022-12-22T14:05:10.605Z,17.90
2022-12-22T14:07:39.107Z,13.90
2022-12-22T14:10:08.421Z,16.00
2022-12-22T14:12:46.989Z,14.70
2022-12-22T14:15:18.806Z,13.50
2022-12-22T14:17:53.711Z,11.90
2022-12-22T14:20:29.371Z,9.70
2022-12-22T14:23:02.757Z,10.90
2022-12-22T14:25:36.061Z,13.30
2022-12-22T14:28:07.292Z,22.50
2022-12-22T14:30:41.527Z,26.60
2022-12-22T14:33:27.584Z,24.80
2022-12-22T14:36:21.745Z,13.60
2022-12-22T14:38:55.036Z,21.70
2022-12-22T14:41:43.689Z,25.10
2022-12-22T14:44:33.185Z,39.20
2022-12-22T14:47:09.717Z,38.40
2022-12-22T14:50:20.268Z,20.90
2022-12-22T14:52:57.022Z,28.20
2022-12-22T14:55:42.155Z,21.40
2022-12-22T14:58:10.035Z,15.50
2022-12-22T15:00:46.745Z,25.00
2022-12-22T15:03:32.765Z,19.20
2022-12-22T15:06:22.566Z,17.20
2022-12-22T15:08:53.415Z,14.50
2022-12-22T15:11:24.422Z,19.30
2022-12-22T15:13:52.390Z,15.90
2022-12-22T15:16:22.492Z,16.00
2022-12-22T15:18:51.295Z,15.20
2022-12-22T15:21:20.809Z,18.10
2022-12-22T15:23:48.899Z,22.60
2022-12-22T15:26:16.687Z,26.50
2022-12-22T15:28:44.474Z,38.80
2022-12-22T15:31:15.356Z,36.00
2022-12-22T15:33:44.924Z,30.20
2022-12-22T15:36:14.397Z,29.00
2022-12-22T15:38:43.049Z,19.70
2022-12-22T15:41:10.948Z,18.30
2022-12-22T15:43:57.851Z,21.30
2022-12-22T15:46:26.567Z,22.10
2022-12-22T15:48:54.535Z,23.40
2022-12-22T15:51:27.959Z,32.50
2022-12-22T15:53:57.176Z,31.40
2022-12-22T15:56:27.214Z,31.00
2022-12-22T15:58:55.219Z,28.20
2022-12-22T16:01:23.105Z,21.50
2022-12-22T16:03:51.175Z,19.40
2022-12-22T16:06:19.664Z,17.00
2022-12-22T16:08:50.963Z,16.90
2022-12-22T16:11:19.486Z,17.40
2022-12-22T16:13:49.291Z,17.70
2022-12-22T16:16:17.678Z,19.10
2022-12-22T16:18:45.524Z,17.20
2022-12-22T16:21:17.682Z,15.40
2022-12-22T16:23:47.988Z,13.10
2022-12-22T16:26:20.052Z,11.90
2022-12-22T16:28:48.500Z,16.70
2022-12-22T16:31:23.261Z,12.70
2022-12-22T16:33:51.992Z,10.80
2022-12-22T16:36:19.925Z,9.00
2022-12-22T16:38:48.015Z,11.50
2022-12-22T16:41:23.912Z,13.00
2022-12-22T16:46:40.873Z,11.90
2022-12-22T16:49:09.370Z,12.90
2022-12-22T16:51:44.671Z,14.50
2022-12-22T16:54:15.904Z,15.70
2022-12-22T16:56:46.983Z,14.10
2022-12-22T16:59:15.122Z,14.90
2022-12-22T17:01:53.814Z,13.00
2022-12-22T17:04:26.005Z,12.30
2022-12-22T17:06:55.470Z,14.60
2022-12-22T17:09:28.087Z,13.80
2022-12-22T17:11:55.936Z,12.30
2022-12-22T17:14:37.703Z,17.80
2022-12-22T17:17:06.027Z,17.00
2022-12-22T17:19:33.860Z,15.70
2022-12-22T17:22:01.774Z,21.30
2022-12-22T17:24:29.816Z,19.70
2022-12-22T17:27:04.201Z,17.80
2022-12-22T17:29:32.183Z,12.40
2022-12-22T17:31:59.987Z,17.40
2022-12-22T17:34:27.855Z,19.80
2022-12-22T17:36:58.800Z,18.30
2022-12-22T17:39:26.729Z,17.20
2022-12-22T17:41:57.418Z,19.80
2022-12-22T17:44:27.078Z,20.30
2022-12-22T17:49:23.044Z,16.00
2022-12-22T17:51:50.977Z,17.80
2022-12-22T17:54:25.729Z,5.20
2022-12-22T17:57:01.956Z,18.30
2022-12-22T17:59:30.905Z,14.10
2022-12-22T18:01:59.308Z,16.30
2022-12-22T18:04:27.304Z,14.00
2022-12-22T18:06:56.025Z,14.20
2022-12-22T18:09:26.367Z,12.40
2022-12-22T18:11:54.297Z,13.90
2022-12-22T18:14:23.120Z,12.90
2022-12-22T18:16:51.135Z,15.80
2022-12-22T18:19:19.440Z,16.20
2022-12-22T18:21:47.429Z,16.60
2022-12-22T18:24:17.366Z,20.00
2022-12-22T18:26:46.988Z,14.50
2022-12-22T18:29:16.116Z,16.40
2022-12-22T18:31:46.448Z,16.80
2022-12-22T18:34:15.365Z,25.90
2022-12-22T18:36:45.517Z,18.20
2022-12-22T18:39:19.104Z,17.30
2022-12-22T18:44:19.177Z,17.80
2022-12-22T18:46:48.758Z,19.40
2022-12-22T18:49:17.113Z,24.30
2022-12-22T18:51:45.553Z,18.50
2022-12-22T18:54:36.783Z,18.70
2022-12-22T18:57:13.077Z,18.60
2022-12-22T18:59:41.951Z,21.60
2022-12-22T19:02:12.595Z,23.70
2022-12-22T19:04:41.623Z,24.40
2022-12-22T19:07:18.757Z,19.20
2022-12-22T19:09:47.612Z,13.10
2022-12-22T19:12:18.545Z,12.10
2022-12-22T19:14:51.656Z,15.20
2022-12-22T19:17:22.134Z,16.20
2022-12-22T19:19:50.132Z,18.10
2022-12-22T19:22:17.932Z,14.00
2022-12-22T19:24:46.327Z,14.00
2022-12-22T19:27:21.832Z,14.10
2022-12-22T19:29:53.825Z,2.80
2022-12-22T19:32:30.517Z,25.90
2022-12-22T19:34:58.438Z,23.00
2022-12-22T19:37:26.254Z,22.80
2022-12-22T19:39:54.085Z,20.50
2022-12-22T19:42:24.026Z,20.90
2022-12-22T19:44:52.046Z,24.60
2022-12-22T19:47:24.418Z,21.10
2022-12-22T19:49:52.749Z,30.30
2022-12-22T19:52:20.722Z,25.90
2022-12-22T19:54:48.671Z,20.30
2022-12-22T19:57:22.404Z,18.00
2022-12-22T19:59:52.636Z,14.60
2022-12-22T20:02:21.313Z,11.80
2022-12-22T20:04:50.235Z,12.60
2022-12-22T20:07:20.302Z,8.80
2022-12-22T20:09:48.317Z,9.80
2022-12-22T20:12:30.661Z,16.20
2022-12-22T20:15:07.297Z,16.40
2022-12-22T20:17:35.087Z,18.90
2022-12-22T20:20:03.081Z,14.50
2022-12-22T20:22:31.084Z,16.30
2022-12-22T20:24:59.323Z,16.50
2022-12-22T20:27:33.074Z,13.20
2022-12-22T20:30:01.247Z,12.30
2022-12-22T20:32:29.360Z,10.50
2022-12-22T20:34:57.406Z,9.90
2022-12-22T20:37:25.564Z,8.50
2022-12-22T20:39:53.403Z,7.70
2022-12-22T20:42:23.417Z,11.10
2022-12-22T20:45:02.569Z,17.80
2022-12-22T20:47:33.716Z,14.80
2022-12-22T20:50:01.705Z,12.70
2022-12-22T20:52:29.583Z,8.40
2022-12-22T20:54:57.431Z,7.40
2022-12-22T20:57:26.499Z,8.30
2022-12-22T20:59:57.055Z,11.00
2022-12-22T21:02:29.304Z,11.00
2022-12-22T21:04:57.572Z,6.10
2022-12-22T21:07:27.894Z,6.80
2022-12-22T21:09:55.945Z,4.60
2022-12-22T21:12:23.830Z,5.30
2022-12-22T21:14:51.992Z,6.20
2022-12-22T21:17:19.897Z,5.00
2022-12-22T21:19:47.781Z,5.60
2022-12-22T21:22:15.841Z,4.60
2022-12-22T21:24:44.009Z,3.90
2022-12-22T21:27:18.952Z,5.50
2022-12-22T21:29:47.263Z,5.80
2022-12-22T21:32:16.064Z,4.90
2022-12-22T21:34:43.864Z,8.10
2022-12-22T21:37:18.346Z,8.80
2022-12-22T21:39:46.225Z,10.40
2022-12-22T21:42:16.098Z,13.70
2022-12-22T21:44:46.864Z,7.30
2022-12-22T21:47:17.582Z,8.70
2022-12-22T21:49:45.460Z,5.60
2022-12-22T21:52:13.403Z,7.60
2022-12-22T21:54:41.283Z,4.90
2022-12-22T21:57:15.775Z,7.70
2022-12-22T21:59:43.875Z,8.60
2022-12-22T22:02:16.536Z,6.50
2022-12-22T22:04:50.170Z,6.40
2022-12-22T22:07:22.589Z,6.40
2022-12-22T22:09:50.460Z,5.60
2022-12-22T22:12:33.581Z,6.70
2022-12-22T22:15:01.960Z,8.00
2022-12-22T22:17:30.141Z,6.10
2022-12-22T22:19:58.051Z,6.90
2022-12-22T22:22:25.874Z,7.80
2022-12-22T22:24:53.789Z,6.40
2022-12-22T22:27:21.715Z,8.40
2022-12-22T22:29:49.585Z,4.00
2022-12-22T22:32:17.498Z,8.20
2022-12-22T22:34:45.317Z,8.00
2022-12-22T22:37:13.138Z,7.90
2022-12-22T22:39:41.048Z,7.00
2022-12-22T22:42:08.891Z,6.20
2022-12-22T22:44:36.687Z,7.90
2022-12-22T22:47:04.824Z,9.60
2022-12-22T22:49:32.874Z,10.70
2022-12-22T22:52:00.782Z,9.10
2022-12-22T22:54:28.655Z,10.40
2022-12-22T22:56:56.558Z,17.40
2022-12-22T22:59:24.402Z,13.20
2022-12-22T23:01:52.286Z,13.00
2022-12-22T23:04:20.383Z,16.20
2022-12-22T23:06:48.403Z,16.90
2022-12-22T23:09:16.297Z,14.00
2022-12-22T23:11:44.231Z,15.30
2022-12-22T23:14:12.165Z,16.80
2022-12-22T23:16:40.009Z,17.70
2022-12-22T23:19:08.038Z,23.40
2022-12-22T23:21:35.906Z,15.60
2022-12-22T23:24:04.095Z,14.60
2022-12-22T23:26:32.384Z,13.70
2022-12-22T23:29:03.600Z,16.10
2022-12-22T23:31:33.472Z,17.50
2022-12-22T23:34:01.831Z,16.10
2022-12-22T23:36:29.780Z,16.70
2022-12-22T23:38:58.113Z,15.80
2022-12-22T23:41:26.040Z,15.00
2022-12-22T23:43:54.714Z,16.00
2022-12-22T23:46:23.076Z,19.00
2022-12-22T23:48:52.757Z,18.80
2022-12-22T23:51:22.782Z,19.30
2022-12-22T23:53:50.698Z,20.60
2022-12-22T23:56:19.607Z,18.70
2022-12-22T23:58:52.552Z,16.90
